sensor_id;sensor_type;location;lat;lon;timestamp;P1;durP1;ratioP1;P2;durP2;ratioP2
68940;SDS011;55982;51.476;7.552;2023-06-01T00:01:38;14.60;;;6.22;;
68940;SDS011;55982;51.476;7.552;2023-06-01T00:04:03;14.98;;;5.03;;
68940;SDS011;55982;51.476;7.552;2023-06-01T00:06:29;9.35;;;5.03;;
68940;SDS011;55982;51.476;7.552;2023-06-01T00:08:55;8.98;;;4.68;;
68940;SDS011;55982;51.476;7.552;2023-06-01T00:11:23;12.38;;;4.75;;
68940;SDS011;55982;51.476;7.552;2023-06-01T00:13:50;10.27;;;4.25;;
68940;SDS011;55982;51.476;7.552;2023-06-01T00:16:16;10.55;;;4.43;;
68940;SDS011;55982;51.476;7.552;2023-06-01T00:18:42;10.77;;;5.78;;
68940;SDS011;55982;51.476;7.552;2023-06-01T00:21:07;13.45;;;5.32;;
68940;SDS011;55982;51.476;7.552;2023-06-01T00:23:33;12.40;;;5.72;;
68940;SDS011;55982;51.476;7.552;2023-06-01T00:25:59;13.23;;;5.30;;
68940;SDS011;55982;51.476;7.552;2023-06-01T00:28:25;14.80;;;5.20;;
68940;SDS011;55982;51.476;7.552;2023-06-01T00:30:51;13.90;;;5.82;;
68940;SDS011;55982;51.476;7.552;2023-06-01T00:33:18;10.40;;;5.53;;
68940;SDS011;55982;51.476;7.552;2023-06-01T00:35:43;16.92;;;5.45;;
68940;SDS011;55982;51.476;7.552;2023-06-01T00:38:09;12.93;;;5.47;;
68940;SDS011;55982;51.476;7.552;2023-06-01T00:40:34;12.02;;;5.78;;
68940;SDS011;55982;51.476;7.552;2023-06-01T00:43:00;14.85;;;5.50;;
68940;SDS011;55982;51.476;7.552;2023-06-01T00:45:25;13.02;;;6.88;;
68940;SDS011;55982;51.476;7.552;2023-06-01T00:47:51;12.98;;;5.53;;
68940;SDS011;55982;51.476;7.552;2023-06-01T00:50:17;19.35;;;7.10;;
68940;SDS011;55982;51.476;7.552;2023-06-01T00:52:43;16.00;;;7.15;;
68940;SDS011;55982;51.476;7.552;2023-06-01T00:55:09;15.57;;;7.32;;
68940;SDS011;55982;51.476;7.552;2023-06-01T00:57:35;18.60;;;6.97;;
68940;SDS011;55982;51.476;7.552;2023-06-01T01:00:03;17.15;;;7.40;;
68940;SDS011;55982;51.476;7.552;2023-06-01T01:02:39;21.17;;;8.07;;
68940;SDS011;55982;51.476;7.552;2023-06-01T01:05:06;17.95;;;8.10;;
68940;SDS011;55982;51.476;7.552;2023-06-01T01:10:33;16.88;;;8.20;;
68940;SDS011;55982;51.476;7.552;2023-06-01T01:13:09;17.35;;;8.93;;
68940;SDS011;55982;51.476;7.552;2023-06-01T01:18:28;18.92;;;8.65;;
68940;SDS011;55982;51.476;7.552;2023-06-01T01:21:00;17.15;;;8.48;;
68940;SDS011;55982;51.476;7.552;2023-06-01T01:26:24;22.55;;;9.30;;
68940;SDS011;55982;51.476;7.552;2023-06-01T01:29:13;19.38;;;9.20;;
68940;SDS011;55982;51.476;7.552;2023-06-01T01:31:40;22.90;;;10.20;;
68940;SDS011;55982;51.476;7.552;2023-06-01T01:34:06;25.88;;;10.85;;
68940;SDS011;55982;51.476;7.552;2023-06-01T01:36:33;26.40;;;11.05;;
68940;SDS011;55982;51.476;7.552;2023-06-01T01:39:00;25.70;;;12.00;;
68940;SDS011;55982;51.476;7.552;2023-06-01T01:41:25;25.17;;;10.98;;
68940;SDS011;55982;51.476;7.552;2023-06-01T01:43:51;23.80;;;10.52;;
68940;SDS011;55982;51.476;7.552;2023-06-01T01:46:22;25.70;;;11.30;;
68940;SDS011;55982;51.476;7.552;2023-06-01T01:48:54;27.75;;;11.20;;
68940;SDS011;55982;51.476;7.552;2023-06-01T01:54:17;30.98;;;12.60;;
68940;SDS011;55982;51.476;7.552;2023-06-01T01:56:44;31.05;;;13.43;;
68940;SDS011;55982;51.476;7.552;2023-06-01T01:59:11;34.25;;;13.48;;
68940;SDS011;55982;51.476;7.552;2023-06-01T02:01:37;32.92;;;13.30;;
68940;SDS011;55982;51.476;7.552;2023-06-01T02:04:08;33.80;;;14.23;;
68940;SDS011;55982;51.476;7.552;2023-06-01T02:06:33;34.83;;;14.13;;
68940;SDS011;55982;51.476;7.552;2023-06-01T02:08:59;33.30;;;13.93;;
68940;SDS011;55982;51.476;7.552;2023-06-01T02:11:24;44.05;;;15.15;;
68940;SDS011;55982;51.476;7.552;2023-06-01T02:13:51;42.40;;;16.10;;
68940;SDS011;55982;51.476;7.552;2023-06-01T02:16:16;32.75;;;14.07;;
68940;SDS011;55982;51.476;7.552;2023-06-01T02:18:43;46.75;;;16.23;;
68940;SDS011;55982;51.476;7.552;2023-06-01T02:21:11;33.75;;;13.98;;
68940;SDS011;55982;51.476;7.552;2023-06-01T02:23:38;46.92;;;16.73;;
68940;SDS011;55982;51.476;7.552;2023-06-01T02:26:05;40.65;;;16.05;;
68940;SDS011;55982;51.476;7.552;2023-06-01T02:28:31;54.72;;;16.95;;
68940;SDS011;55982;51.476;7.552;2023-06-01T02:30:56;41.58;;;16.38;;
68940;SDS011;55982;51.476;7.552;2023-06-01T02:33:21;41.53;;;16.48;;
68940;SDS011;55982;51.476;7.552;2023-06-01T02:35:49;56.15;;;17.92;;
68940;SDS011;55982;51.476;7.552;2023-06-01T02:38:15;50.78;;;17.27;;
68940;SDS011;55982;51.476;7.552;2023-06-01T02:40:41;43.08;;;16.45;;
68940;SDS011;55982;51.476;7.552;2023-06-01T02:43:06;43.67;;;17.40;;
68940;SDS011;55982;51.476;7.552;2023-06-01T02:45:31;48.30;;;16.98;;
68940;SDS011;55982;51.476;7.552;2023-06-01T02:47:57;45.80;;;15.82;;
68940;SDS011;55982;51.476;7.552;2023-06-01T02:50:22;41.22;;;16.73;;
68940;SDS011;55982;51.476;7.552;2023-06-01T02:52:47;43.17;;;16.38;;
68940;SDS011;55982;51.476;7.552;2023-06-01T02:55:13;52.67;;;20.05;;
68940;SDS011;55982;51.476;7.552;2023-06-01T02:57:38;45.78;;;18.05;;
68940;SDS011;55982;51.476;7.552;2023-06-01T03:00:04;43.47;;;18.30;;
68940;SDS011;55982;51.476;7.552;2023-06-01T03:02:40;45.97;;;17.73;;
68940;SDS011;55982;51.476;7.552;2023-06-01T03:05:06;45.10;;;19.10;;
68940;SDS011;55982;51.476;7.552;2023-06-01T03:07:32;51.65;;;20.23;;
68940;SDS011;55982;51.476;7.552;2023-06-01T03:09:57;52.22;;;21.35;;
68940;SDS011;55982;51.476;7.552;2023-06-01T03:12:22;56.67;;;22.60;;
68940;SDS011;55982;51.476;7.552;2023-06-01T03:14:48;66.53;;;22.25;;
68940;SDS011;55982;51.476;7.552;2023-06-01T03:17:13;51.53;;;21.58;;
68940;SDS011;55982;51.476;7.552;2023-06-01T03:19:38;69.07;;;24.20;;
68940;SDS011;55982;51.476;7.552;2023-06-01T03:22:04;62.15;;;23.25;;
68940;SDS011;55982;51.476;7.552;2023-06-01T03:24:33;61.30;;;22.35;;
68940;SDS011;55982;51.476;7.552;2023-06-01T03:26:59;64.20;;;24.33;;
68940;SDS011;55982;51.476;7.552;2023-06-01T03:29:26;67.97;;;24.25;;
68940;SDS011;55982;51.476;7.552;2023-06-01T03:31:51;66.05;;;24.30;;
68940;SDS011;55982;51.476;7.552;2023-06-01T03:34:17;61.88;;;23.70;;
68940;SDS011;55982;51.476;7.552;2023-06-01T03:36:42;66.57;;;22.85;;
68940;SDS011;55982;51.476;7.552;2023-06-01T03:39:13;58.67;;;22.80;;
68940;SDS011;55982;51.476;7.552;2023-06-01T03:41:41;67.78;;;23.45;;
68940;SDS011;55982;51.476;7.552;2023-06-01T03:44:07;61.28;;;23.30;;
68940;SDS011;55982;51.476;7.552;2023-06-01T03:46:32;65.63;;;22.77;;
68940;SDS011;55982;51.476;7.552;2023-06-01T03:48:58;60.67;;;23.33;;
68940;SDS011;55982;51.476;7.552;2023-06-01T03:51:23;65.97;;;24.20;;
68940;SDS011;55982;51.476;7.552;2023-06-01T03:53:48;59.35;;;24.27;;
68940;SDS011;55982;51.476;7.552;2023-06-01T03:56:14;63.03;;;24.60;;
68940;SDS011;55982;51.476;7.552;2023-06-01T03:58:40;54.78;;;22.85;;
68940;SDS011;55982;51.476;7.552;2023-06-01T04:01:05;59.70;;;23.48;;
68940;SDS011;55982;51.476;7.552;2023-06-01T04:03:31;57.53;;;23.58;;
68940;SDS011;55982;51.476;7.552;2023-06-01T04:05:56;65.13;;;24.58;;
68940;SDS011;55982;51.476;7.552;2023-06-01T04:08:27;61.60;;;23.05;;
68940;SDS011;55982;51.476;7.552;2023-06-01T04:10:52;60.35;;;25.50;;
68940;SDS011;55982;51.476;7.552;2023-06-01T04:13:18;58.60;;;24.35;;
68940;SDS011;55982;51.476;7.552;2023-06-01T04:15:44;56.17;;;23.45;;
68940;SDS011;55982;51.476;7.552;2023-06-01T04:18:11;51.05;;;22.90;;
68940;SDS011;55982;51.476;7.552;2023-06-01T04:20:36;51.63;;;22.58;;
68940;SDS011;55982;51.476;7.552;2023-06-01T04:23:02;62.20;;;23.63;;
68940;SDS011;55982;51.476;7.552;2023-06-01T04:25:27;55.92;;;24.73;;
68940;SDS011;55982;51.476;7.552;2023-06-01T04:27:53;51.17;;;21.77;;
68940;SDS011;55982;51.476;7.552;2023-06-01T04:30:19;54.45;;;22.67;;
68940;SDS011;55982;51.476;7.552;2023-06-01T04:32:46;55.20;;;22.85;;
68940;SDS011;55982;51.476;7.552;2023-06-01T04:35:13;49.10;;;21.80;;
68940;SDS011;55982;51.476;7.552;2023-06-01T04:37:39;45.58;;;22.08;;
68940;SDS011;55982;51.476;7.552;2023-06-01T04:40:06;46.35;;;20.10;;
68940;SDS011;55982;51.476;7.552;2023-06-01T04:42:36;40.35;;;20.55;;
68940;SDS011;55982;51.476;7.552;2023-06-01T04:45:04;45.53;;;20.27;;
68940;SDS011;55982;51.476;7.552;2023-06-01T04:47:33;44.97;;;21.33;;
68940;SDS011;55982;51.476;7.552;2023-06-01T04:50:02;48.38;;;20.92;;
68940;SDS011;55982;51.476;7.552;2023-06-01T04:52:29;54.78;;;21.45;;
68940;SDS011;55982;51.476;7.552;2023-06-01T04:54:55;39.75;;;21.95;;
68940;SDS011;55982;51.476;7.552;2023-06-01T04:57:20;49.17;;;23.02;;
68940;SDS011;55982;51.476;7.552;2023-06-01T04:59:45;50.55;;;21.42;;
68940;SDS011;55982;51.476;7.552;2023-06-01T05:02:11;47.53;;;21.60;;
68940;SDS011;55982;51.476;7.552;2023-06-01T05:04:37;46.45;;;22.30;;
68940;SDS011;55982;51.476;7.552;2023-06-01T05:07:02;54.30;;;22.80;;
68940;SDS011;55982;51.476;7.552;2023-06-01T05:09:28;47.83;;;20.13;;
68940;SDS011;55982;51.476;7.552;2023-06-01T05:11:53;50.55;;;22.63;;
68940;SDS011;55982;51.476;7.552;2023-06-01T05:14:18;43.13;;;21.33;;
68940;SDS011;55982;51.476;7.552;2023-06-01T05:16:44;45.20;;;21.55;;
68940;SDS011;55982;51.476;7.552;2023-06-01T05:19:09;49.70;;;21.05;;
68940;SDS011;55982;51.476;7.552;2023-06-01T05:21:35;42.90;;;21.20;;
68940;SDS011;55982;51.476;7.552;2023-06-01T05:24:01;42.83;;;22.20;;
68940;SDS011;55982;51.476;7.552;2023-06-01T05:26:26;46.50;;;21.58;;
68940;SDS011;55982;51.476;7.552;2023-06-01T05:28:52;48.63;;;21.98;;
68940;SDS011;55982;51.476;7.552;2023-06-01T05:31:17;46.90;;;22.13;;
68940;SDS011;55982;51.476;7.552;2023-06-01T05:33:43;43.17;;;19.80;;
68940;SDS011;55982;51.476;7.552;2023-06-01T05:36:08;40.85;;;21.17;;
68940;SDS011;55982;51.476;7.552;2023-06-01T05:38:35;41.55;;;22.23;;
68940;SDS011;55982;51.476;7.552;2023-06-01T05:41:00;42.22;;;21.13;;
68940;SDS011;55982;51.476;7.552;2023-06-01T05:43:25;41.25;;;19.65;;
68940;SDS011;55982;51.476;7.552;2023-06-01T05:45:51;38.90;;;20.70;;
68940;SDS011;55982;51.476;7.552;2023-06-01T05:48:16;45.47;;;20.58;;
68940;SDS011;55982;51.476;7.552;2023-06-01T05:50:41;41.83;;;19.88;;
68940;SDS011;55982;51.476;7.552;2023-06-01T05:53:08;38.88;;;20.70;;
68940;SDS011;55982;51.476;7.552;2023-06-01T05:55:34;40.60;;;20.00;;
68940;SDS011;55982;51.476;7.552;2023-06-01T05:57:59;35.20;;;18.92;;
68940;SDS011;55982;51.476;7.552;2023-06-01T06:00:25;41.58;;;19.77;;
68940;SDS011;55982;51.476;7.552;2023-06-01T06:02:50;40.83;;;19.73;;
68940;SDS011;55982;51.476;7.552;2023-06-01T06:05:16;37.20;;;19.63;;
68940;SDS011;55982;51.476;7.552;2023-06-01T06:07:41;39.30;;;19.55;;
68940;SDS011;55982;51.476;7.552;2023-06-01T06:10:07;41.78;;;20.25;;
68940;SDS011;55982;51.476;7.552;2023-06-01T06:12:32;39.97;;;20.17;;
68940;SDS011;55982;51.476;7.552;2023-06-01T06:14:58;41.97;;;20.58;;
68940;SDS011;55982;51.476;7.552;2023-06-01T06:17:23;43.20;;;21.70;;
68940;SDS011;55982;51.476;7.552;2023-06-01T06:19:49;58.47;;;28.40;;
68940;SDS011;55982;51.476;7.552;2023-06-01T06:22:15;66.30;;;30.15;;
68940;SDS011;55982;51.476;7.552;2023-06-01T06:24:41;61.40;;;28.35;;
68940;SDS011;55982;51.476;7.552;2023-06-01T06:27:08;57.13;;;25.85;;
68940;SDS011;55982;51.476;7.552;2023-06-01T06:29:34;65.32;;;31.95;;
68940;SDS011;55982;51.476;7.552;2023-06-01T06:31:59;67.95;;;30.10;;
68940;SDS011;55982;51.476;7.552;2023-06-01T06:34:25;93.00;;;38.42;;
68940;SDS011;55982;51.476;7.552;2023-06-01T06:36:50;91.57;;;40.30;;
68940;SDS011;55982;51.476;7.552;2023-06-01T06:39:17;90.60;;;39.38;;
68940;SDS011;55982;51.476;7.552;2023-06-01T06:41:43;92.63;;;39.70;;
68940;SDS011;55982;51.476;7.552;2023-06-01T06:44:08;85.38;;;38.05;;
68940;SDS011;55982;51.476;7.552;2023-06-01T06:46:34;86.20;;;35.80;;
68940;SDS011;55982;51.476;7.552;2023-06-01T06:48:59;82.95;;;35.25;;
68940;SDS011;55982;51.476;7.552;2023-06-01T06:51:25;78.38;;;34.28;;
68940;SDS011;55982;51.476;7.552;2023-06-01T06:53:51;80.38;;;35.97;;
68940;SDS011;55982;51.476;7.552;2023-06-01T06:56:16;74.25;;;32.05;;
68940;SDS011;55982;51.476;7.552;2023-06-01T06:58:42;72.50;;;31.13;;
68940;SDS011;55982;51.476;7.552;2023-06-01T07:01:08;58.83;;;26.48;;
68940;SDS011;55982;51.476;7.552;2023-06-01T07:03:33;51.20;;;25.08;;
68940;SDS011;55982;51.476;7.552;2023-06-01T07:05:59;50.70;;;24.48;;
68940;SDS011;55982;51.476;7.552;2023-06-01T07:08:24;59.15;;;27.70;;
68940;SDS011;55982;51.476;7.552;2023-06-01T07:10:50;62.92;;;29.27;;
68940;SDS011;55982;51.476;7.552;2023-06-01T07:13:17;62.47;;;30.10;;
68940;SDS011;55982;51.476;7.552;2023-06-01T07:15:43;75.40;;;34.97;;
68940;SDS011;55982;51.476;7.552;2023-06-01T07:18:11;70.93;;;33.45;;
68940;SDS011;55982;51.476;7.552;2023-06-01T07:20:36;66.55;;;32.72;;
68940;SDS011;55982;51.476;7.552;2023-06-01T07:23:02;66.30;;;33.38;;
68940;SDS011;55982;51.476;7.552;2023-06-01T07:25:27;64.03;;;30.83;;
68940;SDS011;55982;51.476;7.552;2023-06-01T07:27:52;69.28;;;33.45;;
68940;SDS011;55982;51.476;7.552;2023-06-01T07:30:20;70.95;;;33.70;;
68940;SDS011;55982;51.476;7.552;2023-06-01T07:32:47;62.92;;;31.85;;
68940;SDS011;55982;51.476;7.552;2023-06-01T07:35:12;70.00;;;34.10;;
68940;SDS011;55982;51.476;7.552;2023-06-01T07:37:39;67.22;;;33.67;;
68940;SDS011;55982;51.476;7.552;2023-06-01T07:40:05;71.30;;;34.40;;
68940;SDS011;55982;51.476;7.552;2023-06-01T07:42:31;70.15;;;33.85;;
68940;SDS011;55982;51.476;7.552;2023-06-01T07:44:57;73.00;;;33.38;;
68940;SDS011;55982;51.476;7.552;2023-06-01T07:47:23;60.83;;;31.92;;
68940;SDS011;55982;51.476;7.552;2023-06-01T07:49:50;62.80;;;30.88;;
68940;SDS011;55982;51.476;7.552;2023-06-01T07:52:15;47.40;;;25.63;;
68940;SDS011;55982;51.476;7.552;2023-06-01T07:54:40;49.47;;;24.90;;
68940;SDS011;55982;51.476;7.552;2023-06-01T07:57:06;47.63;;;26.30;;
68940;SDS011;55982;51.476;7.552;2023-06-01T07:59:31;59.40;;;30.38;;
68940;SDS011;55982;51.476;7.552;2023-06-01T08:01:57;61.08;;;30.98;;
68940;SDS011;55982;51.476;7.552;2023-06-01T08:04:23;60.20;;;30.95;;
68940;SDS011;55982;51.476;7.552;2023-06-01T08:06:49;58.78;;;31.77;;
68940;SDS011;55982;51.476;7.552;2023-06-01T08:09:18;63.78;;;33.25;;
68940;SDS011;55982;51.476;7.552;2023-06-01T08:11:45;60.20;;;31.95;;
68940;SDS011;55982;51.476;7.552;2023-06-01T08:14:10;64.40;;;34.42;;
68940;SDS011;55982;51.476;7.552;2023-06-01T08:16:36;54.72;;;30.13;;
68940;SDS011;55982;51.476;7.552;2023-06-01T08:19:01;52.95;;;28.27;;
68940;SDS011;55982;51.476;7.552;2023-06-01T08:21:28;47.85;;;26.13;;
68940;SDS011;55982;51.476;7.552;2023-06-01T08:23:53;39.35;;;24.42;;
68940;SDS011;55982;51.476;7.552;2023-06-01T08:26:22;41.78;;;23.73;;
68940;SDS011;55982;51.476;7.552;2023-06-01T08:28:48;42.80;;;24.88;;
68940;SDS011;55982;51.476;7.552;2023-06-01T08:31:20;36.92;;;24.38;;
68940;SDS011;55982;51.476;7.552;2023-06-01T08:33:47;38.78;;;24.23;;
68940;SDS011;55982;51.476;7.552;2023-06-01T08:36:13;39.92;;;24.55;;
68940;SDS011;55982;51.476;7.552;2023-06-01T08:38:39;42.50;;;24.20;;
68940;SDS011;55982;51.476;7.552;2023-06-01T08:41:10;42.90;;;25.52;;
68940;SDS011;55982;51.476;7.552;2023-06-01T08:43:42;41.50;;;23.52;;
68940;SDS011;55982;51.476;7.552;2023-06-01T08:46:08;36.72;;;22.77;;
68940;SDS011;55982;51.476;7.552;2023-06-01T08:48:35;35.72;;;23.13;;
68940;SDS011;55982;51.476;7.552;2023-06-01T08:51:03;32.67;;;19.77;;
68940;SDS011;55982;51.476;7.552;2023-06-01T08:53:29;30.17;;;19.83;;
68940;SDS011;55982;51.476;7.552;2023-06-01T08:55:56;33.30;;;18.65;;
68940;SDS011;55982;51.476;7.552;2023-06-01T08:58:22;25.50;;;17.83;;
68940;SDS011;55982;51.476;7.552;2023-06-01T09:00:51;23.92;;;16.42;;
68940;SDS011;55982;51.476;7.552;2023-06-01T09:03:18;25.52;;;16.15;;
68940;SDS011;55982;51.476;7.552;2023-06-01T09:05:45;26.33;;;16.23;;
68940;SDS011;55982;51.476;7.552;2023-06-01T09:08:10;29.67;;;16.10;;
68940;SDS011;55982;51.476;7.552;2023-06-01T09:10:36;23.77;;;16.10;;
68940;SDS011;55982;51.476;7.552;2023-06-01T09:13:02;23.27;;;15.80;;
68940;SDS011;55982;51.476;7.552;2023-06-01T09:15:28;22.85;;;15.20;;
68940;SDS011;55982;51.476;7.552;2023-06-01T09:18:04;21.80;;;14.80;;
68940;SDS011;55982;51.476;7.552;2023-06-01T09:20:31;23.92;;;15.48;;
68940;SDS011;55982;51.476;7.552;2023-06-01T09:22:57;21.95;;;12.90;;
68940;SDS011;55982;51.476;7.552;2023-06-01T09:25:32;18.70;;;12.48;;
68940;SDS011;55982;51.476;7.552;2023-06-01T09:27:59;18.63;;;12.63;;
68940;SDS011;55982;51.476;7.552;2023-06-01T09:30:26;22.25;;;14.07;;
68940;SDS011;55982;51.476;7.552;2023-06-01T09:33:06;23.65;;;14.57;;
68940;SDS011;55982;51.476;7.552;2023-06-01T09:35:45;23.73;;;15.25;;
68940;SDS011;55982;51.476;7.552;2023-06-01T09:38:12;24.92;;;15.60;;
68940;SDS011;55982;51.476;7.552;2023-06-01T09:40:55;26.83;;;16.73;;
68940;SDS011;55982;51.476;7.552;2023-06-01T09:43:24;24.25;;;16.60;;
68940;SDS011;55982;51.476;7.552;2023-06-01T09:48:35;30.58;;;18.08;;
68940;SDS011;55982;51.476;7.552;2023-06-01T09:51:01;28.33;;;18.75;;
68940;SDS011;55982;51.476;7.552;2023-06-01T09:53:27;27.42;;;18.35;;
68940;SDS011;55982;51.476;7.552;2023-06-01T09:55:59;27.52;;;18.33;;
68940;SDS011;55982;51.476;7.552;2023-06-01T09:58:25;25.13;;;17.40;;
68940;SDS011;55982;51.476;7.552;2023-06-01T10:00:51;26.75;;;18.15;;
68940;SDS011;55982;51.476;7.552;2023-06-01T10:03:17;33.65;;;20.85;;
68940;SDS011;55982;51.476;7.552;2023-06-01T10:05:44;29.80;;;20.20;;
68940;SDS011;55982;51.476;7.552;2023-06-01T10:08:11;26.27;;;16.85;;
68940;SDS011;55982;51.476;7.552;2023-06-01T10:10:38;29.00;;;16.38;;
68940;SDS011;55982;51.476;7.552;2023-06-01T10:13:04;25.52;;;16.27;;
68940;SDS011;55982;51.476;7.552;2023-06-01T10:15:31;32.20;;;18.88;;
68940;SDS011;55982;51.476;7.552;2023-06-01T10:17:57;27.05;;;17.70;;
68940;SDS011;55982;51.476;7.552;2023-06-01T10:20:23;25.75;;;17.65;;
68940;SDS011;55982;51.476;7.552;2023-06-01T10:22:48;25.98;;;17.10;;
68940;SDS011;55982;51.476;7.552;2023-06-01T10:25:15;21.75;;;14.95;;
68940;SDS011;55982;51.476;7.552;2023-06-01T10:27:45;22.00;;;12.85;;
68940;SDS011;55982;51.476;7.552;2023-06-01T10:30:20;21.35;;;11.50;;
68940;SDS011;55982;51.476;7.552;2023-06-01T10:32:46;18.63;;;11.23;;
68940;SDS011;55982;51.476;7.552;2023-06-01T10:40:33;18.05;;;11.38;;
68940;SDS011;55982;51.476;7.552;2023-06-01T10:42:59;18.77;;;11.15;;
68940;SDS011;55982;51.476;7.552;2023-06-01T10:47:59;16.58;;;11.50;;
68940;SDS011;55982;51.476;7.552;2023-06-01T10:50:25;18.80;;;11.10;;
68940;SDS011;55982;51.476;7.552;2023-06-01T10:52:51;20.75;;;11.07;;
68940;SDS011;55982;51.476;7.552;2023-06-01T10:57:47;18.70;;;11.48;;
68940;SDS011;55982;51.476;7.552;2023-06-01T11:00:38;14.50;;;10.80;;
68940;SDS011;55982;51.476;7.552;2023-06-01T11:03:04;18.77;;;11.48;;
68940;SDS011;55982;51.476;7.552;2023-06-01T11:13:16;17.20;;;10.82;;
68940;SDS011;55982;51.476;7.552;2023-06-01T11:21:20;18.17;;;11.30;;
68940;SDS011;55982;51.476;7.552;2023-06-01T11:23:46;18.25;;;11.50;;
68940;SDS011;55982;51.476;7.552;2023-06-01T11:26:16;20.40;;;11.77;;
68940;SDS011;55982;51.476;7.552;2023-06-01T11:28:44;18.92;;;11.82;;
68940;SDS011;55982;51.476;7.552;2023-06-01T11:31:11;16.65;;;11.75;;
68940;SDS011;55982;51.476;7.552;2023-06-01T11:33:38;18.23;;;11.15;;
68940;SDS011;55982;51.476;7.552;2023-06-01T11:36:05;19.05;;;12.10;;
68940;SDS011;55982;51.476;7.552;2023-06-01T11:38:35;16.02;;;11.77;;
68940;SDS011;55982;51.476;7.552;2023-06-01T11:41:03;17.40;;;12.35;;
68940;SDS011;55982;51.476;7.552;2023-06-01T11:43:29;16.58;;;12.10;;
68940;SDS011;55982;51.476;7.552;2023-06-01T11:46:08;20.13;;;11.02;;
68940;SDS011;55982;51.476;7.552;2023-06-01T11:48:36;19.85;;;11.25;;
68940;SDS011;55982;51.476;7.552;2023-06-01T11:51:02;14.50;;;10.30;;
68940;SDS011;55982;51.476;7.552;2023-06-01T11:53:29;12.82;;;9.48;;
68940;SDS011;55982;51.476;7.552;2023-06-01T11:55:59;16.45;;;10.23;;
68940;SDS011;55982;51.476;7.552;2023-06-01T11:58:26;17.13;;;11.18;;
68940;SDS011;55982;51.476;7.552;2023-06-01T12:00:53;21.88;;;10.90;;
68940;SDS011;55982;51.476;7.552;2023-06-01T12:03:19;17.77;;;11.75;;
68940;SDS011;55982;51.476;7.552;2023-06-01T12:05:45;18.98;;;10.55;;
68940;SDS011;55982;51.476;7.552;2023-06-01T12:08:13;17.10;;;10.65;;
68940;SDS011;55982;51.476;7.552;2023-06-01T12:10:50;17.45;;;10.23;;
68940;SDS011;55982;51.476;7.552;2023-06-01T12:13:18;16.65;;;9.93;;
68940;SDS011;55982;51.476;7.552;2023-06-01T12:15:44;19.98;;;11.90;;
68940;SDS011;55982;51.476;7.552;2023-06-01T12:18:10;15.30;;;10.02;;
68940;SDS011;55982;51.476;7.552;2023-06-01T12:20:43;18.55;;;10.10;;
68940;SDS011;55982;51.476;7.552;2023-06-01T12:23:12;17.60;;;10.27;;
68940;SDS011;55982;51.476;7.552;2023-06-01T12:25:55;16.50;;;10.88;;
68940;SDS011;55982;51.476;7.552;2023-06-01T12:28:22;16.55;;;11.13;;
68940;SDS011;55982;51.476;7.552;2023-06-01T12:30:49;18.50;;;10.63;;
68940;SDS011;55982;51.476;7.552;2023-06-01T12:33:33;18.63;;;11.10;;
68940;SDS011;55982;51.476;7.552;2023-06-01T12:36:00;15.10;;;9.80;;
68940;SDS011;55982;51.476;7.552;2023-06-01T12:38:26;18.95;;;10.98;;
68940;SDS011;55982;51.476;7.552;2023-06-01T12:41:07;18.02;;;11.05;;
68940;SDS011;55982;51.476;7.552;2023-06-01T12:43:34;16.77;;;9.60;;
68940;SDS011;55982;51.476;7.552;2023-06-01T12:46:01;15.65;;;10.57;;
68940;SDS011;55982;51.476;7.552;2023-06-01T12:48:35;21.15;;;10.95;;
68940;SDS011;55982;51.476;7.552;2023-06-01T12:51:01;15.98;;;9.40;;
68940;SDS011;55982;51.476;7.552;2023-06-01T12:53:31;15.48;;;10.07;;
68940;SDS011;55982;51.476;7.552;2023-06-01T12:55:56;14.80;;;10.38;;
68940;SDS011;55982;51.476;7.552;2023-06-01T12:58:22;17.95;;;10.23;;
68940;SDS011;55982;51.476;7.552;2023-06-01T13:00:47;14.90;;;10.38;;
68940;SDS011;55982;51.476;7.552;2023-06-01T13:03:13;16.17;;;9.98;;
68940;SDS011;55982;51.476;7.552;2023-06-01T13:05:42;17.30;;;10.30;;
68940;SDS011;55982;51.476;7.552;2023-06-01T13:08:10;16.23;;;10.55;;
68940;SDS011;55982;51.476;7.552;2023-06-01T13:10:36;16.48;;;10.90;;
68940;SDS011;55982;51.476;7.552;2023-06-01T13:13:02;14.50;;;10.07;;
68940;SDS011;55982;51.476;7.552;2023-06-01T13:15:27;21.98;;;9.90;;
68940;SDS011;55982;51.476;7.552;2023-06-01T13:17:52;20.70;;;11.85;;
68940;SDS011;55982;51.476;7.552;2023-06-01T13:20:20;14.75;;;10.18;;
68940;SDS011;55982;51.476;7.552;2023-06-01T13:22:45;18.08;;;11.50;;
68940;SDS011;55982;51.476;7.552;2023-06-01T13:25:11;18.30;;;12.75;;
68940;SDS011;55982;51.476;7.552;2023-06-01T13:27:36;20.83;;;11.55;;
68940;SDS011;55982;51.476;7.552;2023-06-01T13:30:02;20.30;;;13.93;;
68940;SDS011;55982;51.476;7.552;2023-06-01T13:32:29;21.35;;;13.20;;
68940;SDS011;55982;51.476;7.552;2023-06-01T13:34:54;19.85;;;14.00;;
68940;SDS011;55982;51.476;7.552;2023-06-01T13:37:21;21.88;;;14.38;;
68940;SDS011;55982;51.476;7.552;2023-06-01T13:39:47;23.15;;;14.60;;
68940;SDS011;55982;51.476;7.552;2023-06-01T13:42:12;20.00;;;13.73;;
68940;SDS011;55982;51.476;7.552;2023-06-01T13:44:37;21.63;;;13.80;;
68940;SDS011;55982;51.476;7.552;2023-06-01T13:47:03;20.88;;;12.82;;
68940;SDS011;55982;51.476;7.552;2023-06-01T13:49:29;22.60;;;13.32;;
68940;SDS011;55982;51.476;7.552;2023-06-01T13:51:54;20.52;;;13.60;;
68940;SDS011;55982;51.476;7.552;2023-06-01T13:54:19;22.25;;;15.10;;
68940;SDS011;55982;51.476;7.552;2023-06-01T13:56:45;19.85;;;14.68;;
68940;SDS011;55982;51.476;7.552;2023-06-01T13:59:11;24.77;;;15.30;;
68940;SDS011;55982;51.476;7.552;2023-06-01T14:01:36;23.77;;;15.23;;
68940;SDS011;55982;51.476;7.552;2023-06-01T14:04:02;24.77;;;14.18;;
68940;SDS011;55982;51.476;7.552;2023-06-01T14:06:28;21.30;;;14.75;;
68940;SDS011;55982;51.476;7.552;2023-06-01T14:08:53;22.27;;;13.13;;
68940;SDS011;55982;51.476;7.552;2023-06-01T14:11:19;21.92;;;14.63;;
68940;SDS011;55982;51.476;7.552;2023-06-01T14:13:44;22.00;;;15.43;;
68940;SDS011;55982;51.476;7.552;2023-06-01T14:16:09;19.75;;;14.07;;
68940;SDS011;55982;51.476;7.552;2023-06-01T14:18:35;22.58;;;12.85;;
68940;SDS011;55982;51.476;7.552;2023-06-01T14:21:00;19.60;;;12.73;;
68940;SDS011;55982;51.476;7.552;2023-06-01T14:23:26;21.13;;;12.75;;
68940;SDS011;55982;51.476;7.552;2023-06-01T14:25:51;20.15;;;12.93;;
68940;SDS011;55982;51.476;7.552;2023-06-01T14:28:16;15.10;;;11.52;;
68940;SDS011;55982;51.476;7.552;2023-06-01T14:30:42;17.55;;;11.52;;
68940;SDS011;55982;51.476;7.552;2023-06-01T14:33:07;15.52;;;10.43;;
68940;SDS011;55982;51.476;7.552;2023-06-01T14:35:32;17.38;;;11.93;;
68940;SDS011;55982;51.476;7.552;2023-06-01T14:37:58;19.25;;;10.50;;
68940;SDS011;55982;51.476;7.552;2023-06-01T14:40:24;14.55;;;10.18;;
68940;SDS011;55982;51.476;7.552;2023-06-01T14:42:49;13.00;;;9.05;;
68940;SDS011;55982;51.476;7.552;2023-06-01T14:45:15;15.52;;;9.23;;
68940;SDS011;55982;51.476;7.552;2023-06-01T14:47:41;13.55;;;9.98;;
68940;SDS011;55982;51.476;7.552;2023-06-01T14:50:06;13.25;;;9.65;;
68940;SDS011;55982;51.476;7.552;2023-06-01T14:52:32;15.43;;;8.98;;
68940;SDS011;55982;51.476;7.552;2023-06-01T14:54:58;14.45;;;9.40;;
68940;SDS011;55982;51.476;7.552;2023-06-01T14:57:23;10.88;;;8.80;;
68940;SDS011;55982;51.476;7.552;2023-06-01T14:59:48;13.60;;;8.27;;